Time;durP1;ratioP1;P1;durP2;ratioP2;P2;SDS_P1;SDS_P2;PMS_P1;PMS_P2;Temp;Humidity;BMP_temperature;BMP_pressure;BME280_temperature;BME280_humidity;BME280_pressure;Samples;Min_cycle;Max_cycle;Signal;HPM_P1;HPM_P2
2023/06/05 00:01:27;;;;;;;8.70;5.50;;;14.00;27.00;;;;;;5014272;28;46458;-63
2023/06/05 00:03:54;;;;;;;16.13;5.70;;;14.00;26.00;;;;;;5017516;28;46433;-64
2023/06/05 00:06:19;;;;;;;11.57;5.50;;;14.00;26.10;;;;;;5019652;28;46646;-64
2023/06/05 00:08:45;;;;;;;8.87;4.97;;;14.00;26.10;;;;;;5018136;28;46430;-64
2023/06/05 00:11:11;;;;;;;11.70;5.07;;;13.90;26.10;;;;;;5015278;28;46463;-64
2023/06/05 00:13:36;;;;;;;12.17;4.83;;;13.90;26.20;;;;;;5018405;28;46355;-64
2023/06/05 00:16:03;;;;;;;8.97;4.80;;;13.80;26.50;;;;;;5016647;28;46366;-64
2023/06/05 00:18:30;;;;;;;13.83;5.20;;;13.80;26.60;;;;;;5012586;28;46336;-64
2023/06/05 00:20:55;;;;;;;12.50;5.30;;;13.70;26.70;;;;;;5017275;28;46585;-64
2023/06/05 00:23:21;;;;;;;9.37;5.00;;;13.70;26.80;;;;;;5014862;28;46390;-64
2023/06/05 00:25:46;;;;;;;10.50;4.80;;;13.70;26.80;;;;;;5016336;28;46514;-63
2023/06/05 00:28:12;;;;;;;11.67;4.63;;;13.70;26.80;;;;;;5019140;28;47030;-64
2023/06/05 00:30:38;;;;;;;11.17;4.90;;;13.80;26.80;;;;;;5012461;28;46446;-63
2023/06/05 00:33:04;;;;;;;11.63;5.53;;;13.80;26.80;;;;;;5017157;28;45873;-64
2023/06/05 00:35:30;;;;;;;8.53;5.00;;;13.90;26.90;;;;;;5017388;28;46589;-64
2023/06/05 00:37:56;;;;;;;8.70;4.60;;;13.90;26.90;;;;;;5015135;28;46414;-64
2023/06/05 00:40:21;;;;;;;14.23;4.70;;;14.00;26.90;;;;;;5016130;28;46536;-64
2023/06/05 00:42:47;;;;;;;14.40;4.97;;;14.00;26.80;;;;;;5015577;28;46413;-63
2023/06/05 00:45:13;;;;;;;9.83;5.53;;;14.10;26.90;;;;;;5018899;28;46480;-64
2023/06/05 00:47:40;;;;;;;9.77;4.73;;;14.10;26.90;;;;;;5012076;28;46437;-64
2023/06/05 00:50:07;;;;;;;12.33;5.40;;;14.20;26.90;;;;;;5012777;28;46685;-64
2023/06/05 00:52:34;;;;;;;10.93;5.00;;;14.20;26.80;;;;;;5012432;28;46112;-65
2023/06/05 00:55:01;;;;;;;21.27;5.43;;;14.20;26.90;;;;;;5015238;28;46077;-65
2023/06/05 00:57:28;;;;;;;18.13;6.17;;;14.20;27.00;;;;;;5017229;28;46629;-64
2023/06/05 00:59:54;;;;;;;8.13;5.53;;;14.20;27.00;;;;;;5015774;28;46303;-64
2023/06/05 01:02:21;;;;;;;7.73;4.87;;;14.20;27.20;;;;;;5012283;28;46377;-65
2023/06/05 01:04:47;;;;;;;15.80;6.10;;;14.30;27.40;;;;;;5001794;28;46293;-65
2023/06/05 01:07:16;;;;;;;10.40;5.60;;;14.20;27.40;;;;;;5017551;28;47128;-64
2023/06/05 01:09:42;;;;;;;10.30;6.03;;;14.20;27.50;;;;;;5013267;28;46640;-64
2023/06/05 01:12:16;;;;;;;16.00;6.30;;;14.20;27.60;;;;;;5013936;28;46459;-63
2023/06/05 01:14:45;;;;;;;12.20;5.50;;;14.20;27.80;;;;;;5016090;28;46466;-64
2023/06/05 01:17:12;;;;;;;8.40;5.13;;;14.10;27.90;;;;;;5013878;28;47306;-63
2023/06/05 01:19:39;;;;;;;8.10;4.70;;;14.10;28.20;;;;;;5013831;28;46446;-63
2023/06/05 01:22:05;;;;;;;10.87;5.20;;;14.00;28.40;;;;;;5015114;28;46446;-63
2023/06/05 01:24:32;;;;;;;9.77;5.40;;;14.00;28.90;;;;;;5014677;28;46503;-64
2023/06/05 01:27:26;;;;;;;10.40;5.97;;;13.90;28.90;;;;;;5017310;28;46724;-63
2023/06/05 01:30:16;;;;;;;12.40;5.63;;;13.90;28.90;;;;;;5014522;28;46410;-64
2023/06/05 01:33:02;;;;;;;13.33;5.20;;;13.90;28.90;;;;;;5011287;28;46399;-64
2023/06/05 01:35:32;;;;;;;8.50;4.80;;;13.80;28.80;;;;;;5017123;28;46525;-63
2023/06/05 01:38:05;;;;;;;11.30;5.80;;;13.80;28.80;;;;;;5017014;28;46578;-63
2023/06/05 01:40:33;;;;;;;10.70;5.80;;;13.90;28.90;;;;;;4997544;28;46759;-64
2023/06/05 01:43:00;;;;;;;10.13;6.07;;;13.90;28.90;;;;;;5017020;28;46426;-64
2023/06/05 01:45:27;;;;;;;12.23;5.90;;;13.80;28.80;;;;;;5014237;28;46535;-64
2023/06/05 01:47:53;;;;;;;9.83;6.10;;;13.90;28.90;;;;;;5015980;28;46649;-63
2023/06/05 01:50:19;;;;;;;10.93;6.70;;;13.90;28.90;;;;;;5012480;28;46423;-65
2023/06/05 01:52:46;;;;;;;10.80;5.80;;;13.90;28.90;;;;;;5017049;28;46498;-64
2023/06/05 01:55:26;;;;;;;10.70;5.47;;;13.90;28.90;;;;;;5022093;28;46399;-63
2023/06/05 01:57:52;;;;;;;8.23;5.57;;;13.90;28.90;;;;;;5015519;28;46475;-62
2023/06/05 02:00:18;;;;;;;11.67;6.17;;;13.90;28.90;;;;;;5014759;28;46474;-63
2023/06/05 02:02:45;;;;;;;10.83;5.70;;;13.90;28.90;;;;;;5016200;28;46449;-62
2023/06/05 02:05:15;;;;;;;14.30;6.20;;;13.90;28.90;;;;;;5016436;28;46438;-64
2023/06/05 02:07:47;;;;;;;11.43;6.27;;;13.90;28.90;;;;;;5009823;28;46978;-64
2023/06/05 02:10:13;;;;;;;13.57;5.83;;;13.90;28.90;;;;;;5010093;28;46411;-62
2023/06/05 02:12:41;;;;;;;13.73;6.33;;;14.00;28.80;;;;;;5015061;28;46419;-63
2023/06/05 02:15:08;;;;;;;8.60;5.90;;;14.00;28.60;;;;;;5014213;28;46617;-64
2023/06/05 02:17:34;;;;;;;8.57;5.57;;;14.00;28.70;;;;;;5015503;28;46587;-64
2023/06/05 02:20:00;;;;;;;9.80;5.80;;;14.10;28.50;;;;;;5010459;28;46479;-64
2023/06/05 02:22:26;;;;;;;11.40;5.60;;;14.10;28.40;;;;;;5013270;28;45861;-63
2023/06/05 02:24:53;;;;;;;10.43;6.00;;;14.10;28.40;;;;;;5017836;28;46740;-64
2023/06/05 02:27:19;;;;;;;11.30;6.17;;;14.20;28.30;;;;;;5016628;28;46378;-63
2023/06/05 02:29:44;;;;;;;12.03;6.00;;;14.10;28.40;;;;;;5019442;28;46406;-64
2023/06/05 02:32:11;;;;;;;12.23;6.20;;;14.10;28.70;;;;;;5018978;28;46470;-62
2023/06/05 02:34:37;;;;;;;10.93;4.90;;;14.00;28.90;;;;;;5019744;28;46351;-63
2023/06/05 02:37:03;;;;;;;11.87;5.77;;;13.90;28.90;;;;;;5017887;28;46271;-64
2023/06/05 02:39:30;;;;;;;11.83;5.17;;;13.80;28.80;;;;;;5017240;28;46389;-64
2023/06/05 02:41:56;;;;;;;7.83;5.70;;;13.80;28.80;;;;;;5019725;28;46405;-63
2023/06/05 02:44:22;;;;;;;10.10;5.53;;;13.80;28.80;;;;;;5016955;28;46310;-64
2023/06/05 02:46:48;;;;;;;10.50;5.03;;;13.70;29.10;;;;;;5016821;28;46981;-64
2023/06/05 02:49:13;;;;;;;9.30;5.87;;;13.70;29.30;;;;;;5014364;28;46509;-63
2023/06/05 02:51:39;;;;;;;10.93;5.60;;;13.70;29.40;;;;;;5017132;28;46810;-63
2023/06/05 02:54:04;;;;;;;9.90;4.90;;;13.70;29.60;;;;;;5018331;28;46521;-63
2023/06/05 02:56:30;;;;;;;10.37;5.70;;;13.70;29.50;;;;;;5018812;28;46316;-63
2023/06/05 02:58:56;;;;;;;8.90;5.27;;;13.60;29.60;;;;;;5018410;28;46367;-63
2023/06/05 03:01:22;;;;;;;10.40;5.80;;;13.60;29.70;;;;;;5017315;28;46342;-63
2023/06/05 03:03:48;;;;;;;7.87;4.77;;;13.60;29.80;;;;;;5014424;28;46304;-63
2023/06/05 03:06:17;;;;;;;12.80;6.23;;;13.50;29.90;;;;;;5019704;28;47298;-63
2023/06/05 03:08:43;;;;;;;7.90;4.87;;;13.50;30.10;;;;;;5014968;28;46481;-63
2023/06/05 03:11:10;;;;;;;16.93;6.10;;;13.40;30.20;;;;;;5019264;28;46268;-63
2023/06/05 03:13:35;;;;;;;11.17;6.23;;;13.30;30.40;;;;;;5017449;28;46012;-63
2023/06/05 03:16:02;;;;;;;14.20;5.50;;;13.30;30.60;;;;;;5013806;28;46403;-63
2023/06/05 03:18:28;;;;;;;9.40;4.97;;;13.30;30.90;;;;;;5015981;28;46376;-63
2023/06/05 03:20:54;;;;;;;16.40;5.13;;;13.20;31.10;;;;;;5018436;28;46521;-64
2023/06/05 03:23:25;;;;;;;14.23;6.03;;;13.20;31.20;;;;;;5017845;28;46452;-64
2023/06/05 03:25:51;;;;;;;9.60;5.83;;;13.20;31.40;;;;;;5016175;28;46602;-63
2023/06/05 03:28:18;;;;;;;14.23;5.90;;;13.10;31.30;;;;;;5014355;28;46995;-64
2023/06/05 03:30:45;;;;;;;11.03;5.83;;;13.10;31.80;;;;;;5015176;28;45864;-63
2023/06/05 03:33:10;;;;;;;10.67;5.93;;;13.00;31.90;;;;;;5018532;28;46507;-63
2023/06/05 03:35:36;;;;;;;14.70;5.97;;;12.90;32.20;;;;;;5019975;28;47212;-64
2023/06/05 03:38:02;;;;;;;8.07;5.10;;;12.80;32.40;;;;;;5014002;28;46539;-63
2023/06/05 03:40:28;;;;;;;14.20;5.80;;;12.80;32.60;;;;;;5016202;28;46824;-64
2023/06/05 03:42:54;;;;;;;11.73;5.77;;;12.80;32.70;;;;;;5017242;28;46307;-64
2023/06/05 03:45:19;;;;;;;10.10;6.07;;;12.80;32.80;;;;;;5019442;28;46289;-63
2023/06/05 03:47:48;;;;;;;14.60;5.70;;;12.90;32.80;;;;;;5016694;28;46348;-63
2023/06/05 03:50:15;;;;;;;8.03;5.00;;;12.90;32.70;;;;;;5014412;28;46659;-63
2023/06/05 03:52:40;;;;;;;17.13;6.00;;;13.00;32.50;;;;;;5018909;28;46366;-63
2023/06/05 03:55:10;;;;;;;8.90;5.63;;;13.10;32.30;;;;;;5017720;28;46591;-63
2023/06/05 03:57:39;;;;;;;9.63;6.23;;;13.30;32.00;;;;;;5017522;28;46582;-63
2023/06/05 04:00:09;;;;;;;10.80;6.30;;;13.40;31.70;;;;;;5018750;28;46422;-63
2023/06/05 04:02:36;;;;;;;12.70;5.90;;;13.50;31.60;;;;;;5017198;28;45817;-63
2023/06/05 04:05:03;;;;;;;12.47;5.33;;;13.60;31.50;;;;;;5016069;28;46651;-63
2023/06/05 04:07:29;;;;;;;10.47;5.43;;;13.70;31.30;;;;;;5017261;28;46436;-63
2023/06/05 04:09:54;;;;;;;10.53;5.80;;;13.80;31.00;;;;;;5017733;28;46411;-63
2023/06/05 04:12:20;;;;;;;14.77;6.00;;;13.90;30.90;;;;;;5018780;28;46676;-63
2023/06/05 04:14:47;;;;;;;16.67;5.70;;;14.00;30.80;;;;;;5017544;28;47380;-63
2023/06/05 04:17:15;;;;;;;9.50;6.50;;;14.10;30.50;;;;;;5017240;28;46463;-63
2023/06/05 04:19:41;;;;;;;9.43;5.70;;;14.20;30.30;;;;;;5017565;28;46425;-63
2023/06/05 04:22:07;;;;;;;28.43;6.70;;;14.40;30.20;;;;;;5017182;28;46719;-64
2023/06/05 04:24:32;;;;;;;7.90;5.50;;;14.40;30.00;;;;;;4998904;28;48385;-64
2023/06/05 04:27:00;;;;;;;11.10;5.30;;;14.40;30.00;;;;;;5016897;28;46461;-64
2023/06/05 04:29:26;;;;;;;16.47;6.07;;;14.50;30.20;;;;;;5014578;28;45824;-64
2023/06/05 04:31:52;;;;;;;11.30;5.73;;;14.60;30.00;;;;;;5017383;28;46414;-63
2023/06/05 04:34:18;;;;;;;9.10;6.10;;;14.70;30.00;;;;;;5014268;28;46390;-64
2023/06/05 04:36:44;;;;;;;9.03;5.87;;;14.80;30.00;;;;;;5016151;28;46426;-63
2023/06/05 04:39:15;;;;;;;9.70;5.60;;;14.90;29.70;;;;;;5016249;28;46363;-64
2023/06/05 04:41:46;;;;;;;12.47;6.70;;;15.10;29.70;;;;;;5016451;28;46449;-63
2023/06/05 04:44:16;;;;;;;14.50;6.60;;;15.80;29.10;;;;;;5016061;28;47875;-63
2023/06/05 04:46:45;;;;;;;9.40;5.57;;;17.20;27.80;;;;;;5014033;28;46531;-63
2023/06/05 04:49:15;;;;;;;15.93;6.10;;;18.70;25.60;;;;;;5014224;28;46456;-63
2023/06/05 04:51:43;;;;;;;13.93;6.40;;;19.70;23.80;;;;;;5016085;28;46581;-63
2023/06/05 04:54:09;;;;;;;13.93;7.20;;;20.10;22.90;;;;;;5017805;28;46682;-62
2023/06/05 04:56:35;;;;;;;21.50;6.83;;;20.70;23.00;;;;;;5014259;28;46402;-63
2023/06/05 04:59:02;;;;;;;13.80;6.70;;;20.50;22.70;;;;;;5016669;28;46280;-64
2023/06/05 05:01:28;;;;;;;12.10;6.03;;;21.10;21.70;;;;;;5016897;28;46368;-64
2023/06/05 05:03:54;;;;;;;9.40;7.10;;;21.60;20.60;;;;;;5016619;28;46673;-63
2023/06/05 05:06:21;;;;;;;10.90;6.90;;;22.00;19.30;;;;;;4998315;28;46383;-62
2023/06/05 05:08:50;;;;;;;16.90;6.10;;;22.60;18.40;;;;;;5014547;28;46449;-63
2023/06/05 05:11:17;;;;;;;10.80;6.50;;;23.00;17.30;;;;;;5017027;28;45936;-63
2023/06/05 05:13:43;;;;;;;13.17;7.53;;;23.20;16.20;;;;;;5017301;28;46431;-64
2023/06/05 05:16:10;;;;;;;12.80;6.63;;;23.30;16.10;;;;;;5016358;28;46377;-64
2023/06/05 05:18:40;;;;;;;8.90;6.30;;;23.50;15.70;;;;;;5015825;28;46531;-63
2023/06/05 05:21:06;;;;;;;10.73;6.40;;;23.70;14.80;;;;;;5014578;28;46320;-63
2023/06/05 05:23:33;;;;;;;11.93;7.20;;;23.80;14.50;;;;;;5018072;28;46611;-65
2023/06/05 05:25:59;;;;;;;17.80;7.30;;;24.00;14.10;;;;;;5013463;28;46407;-64
2023/06/05 05:28:24;;;;;;;9.90;7.20;;;24.40;14.10;;;;;;5015836;28;46396;-62
2023/06/05 05:30:52;;;;;;;10.50;6.50;;;24.60;13.10;;;;;;5015538;28;46406;-64
2023/06/05 05:33:17;;;;;;;12.53;6.50;;;24.60;12.40;;;;;;5016580;28;46445;-64
2023/06/05 05:35:44;;;;;;;16.40;6.77;;;24.40;12.30;;;;;;5013162;28;46515;-64
2023/06/05 05:38:10;;;;;;;12.63;7.73;;;24.20;12.20;;;;;;5014498;28;46396;-64
2023/06/05 05:40:35;;;;;;;15.40;7.33;;;24.30;12.10;;;;;;5015679;28;46127;-64
2023/06/05 05:43:01;;;;;;;12.77;7.30;;;24.20;11.70;;;;;;5014458;28;46388;-64
2023/06/05 05:45:27;;;;;;;27.93;7.73;;;24.20;11.80;;;;;;5016537;28;46402;-64
2023/06/05 05:47:52;;;;;;;13.47;6.90;;;23.80;12.10;;;;;;5011075;28;46368;-65
2023/06/05 05:50:18;;;;;;;16.37;7.40;;;22.80;13.30;;;;;;5015528;28;46506;-64
2023/06/05 05:52:44;;;;;;;12.50;7.10;;;21.70;16.40;;;;;;5008913;28;46370;-61
2023/06/05 05:55:10;;;;;;;13.07;7.80;;;21.10;17.30;;;;;;5014267;28;46414;-59
2023/06/05 05:57:36;;;;;;;11.03;7.20;;;20.70;18.70;;;;;;5014865;28;46487;-59
2023/06/05 06:00:05;;;;;;;16.57;7.57;;;20.30;19.30;;;;;;5014987;28;46527;-59
2023/06/05 06:02:32;;;;;;;17.90;8.30;;;20.20;19.20;;;;;;5013202;28;46855;-62
2023/06/05 06:04:57;;;;;;;15.63;7.90;;;20.00;19.40;;;;;;5014157;28;46446;-62
2023/06/05 06:07:23;;;;;;;17.60;8.53;;;19.70;19.80;;;;;;5014198;28;46447;-63
2023/06/05 06:09:48;;;;;;;16.27;9.10;;;19.70;19.90;;;;;;5015709;28;45929;-71
2023/06/05 06:12:14;;;;;;;16.00;9.53;;;19.70;20.90;;;;;;5014400;28;46439;-74
2023/06/05 06:14:40;;;;;;;12.97;8.10;;;20.00;19.70;;;;;;5013882;28;46620;-67
2023/06/05 06:17:09;;;;;;;14.53;8.03;;;20.20;19.10;;;;;;5014980;28;46376;-62
2023/06/05 06:19:35;;;;;;;12.17;7.40;;;20.50;19.10;;;;;;5013448;28;46463;-66
2023/06/05 06:22:01;;;;;;;18.90;8.70;;;20.60;18.40;;;;;;5012229;28;46802;-66
2023/06/05 06:24:26;;;;;;;16.50;8.50;;;20.60;19.30;;;;;;5015473;28;46492;-67
2023/06/05 06:26:52;;;;;;;16.70;8.50;;;20.40;19.90;;;;;;5016826;28;46221;-68
2023/06/05 06:29:23;;;;;;;12.40;8.50;;;20.30;20.20;;;;;;5015270;28;46425;-68
2023/06/05 06:31:49;;;;;;;14.33;8.30;;;20.50;19.70;;;;;;5011861;28;48041;-68
2023/06/05 06:34:15;;;;;;;18.50;8.93;;;20.70;20.40;;;;;;5014989;28;46378;-66
2023/06/05 06:36:40;;;;;;;14.67;8.37;;;20.80;20.00;;;;;;5013970;28;46411;-66
2023/06/05 06:39:07;;;;;;;13.70;8.40;;;20.70;19.80;;;;;;5015348;28;46391;-67
2023/06/05 06:41:34;;;;;;;10.93;7.00;;;20.50;19.60;;;;;;5014958;28;48048;-68
2023/06/05 06:44:00;;;;;;;11.97;7.80;;;20.40;20.70;;;;;;5014567;28;46410;-67
2023/06/05 06:46:26;;;;;;;12.90;7.73;;;20.20;21.00;;;;;;4996678;28;46564;-67
2023/06/05 06:48:52;;;;;;;13.53;7.50;;;20.10;21.10;;;;;;5015656;28;46427;-67
2023/06/05 06:51:17;;;;;;;11.63;7.90;;;20.30;20.90;;;;;;5013099;28;46477;-68
2023/06/05 06:53:44;;;;;;;17.50;8.40;;;20.40;21.90;;;;;;5014054;28;46391;-68
2023/06/05 06:56:09;;;;;;;11.33;8.23;;;20.70;21.20;;;;;;5011016;28;46637;-66
2023/06/05 06:58:36;;;;;;;13.90;7.43;;;21.00;20.80;;;;;;5016240;28;46539;-67
2023/06/05 07:01:03;;;;;;;16.63;8.20;;;21.30;19.30;;;;;;5015661;28;47000;-67
2023/06/05 07:03:29;;;;;;;14.77;9.00;;;21.30;21.30;;;;;;5008109;28;46512;-67
2023/06/05 07:05:55;;;;;;;16.93;8.07;;;21.40;20.40;;;;;;4998653;28;46445;-67
2023/06/05 07:08:20;;;;;;;14.70;6.90;;;21.30;20.40;;;;;;5014566;28;46554;-68
2023/06/05 07:10:46;;;;;;;12.33;7.70;;;21.60;19.30;;;;;;4997663;28;47080;-67
2023/06/05 07:13:12;;;;;;;13.53;7.40;;;21.60;19.30;;;;;;5013318;28;46423;-66
2023/06/05 07:15:37;;;;;;;8.67;6.63;;;21.70;20.00;;;;;;5017840;28;46461;-65
2023/06/05 07:18:03;;;;;;;11.00;6.60;;;21.60;19.80;;;;;;5017261;28;46638;-67
2023/06/05 07:20:29;;;;;;;12.57;6.77;;;21.70;19.60;;;;;;5016123;28;47235;-66
2023/06/05 07:22:54;;;;;;;15.23;6.67;;;21.80;18.40;;;;;;5015108;28;46317;-68
2023/06/05 07:25:22;;;;;;;14.67;7.60;;;22.00;19.00;;;;;;5014076;28;46438;-67
2023/06/05 07:27:48;;;;;;;12.83;6.47;;;21.80;18.90;;;;;;5016308;28;46344;-66
2023/06/05 07:30:14;;;;;;;13.03;6.77;;;21.70;18.90;;;;;;5015123;28;46758;-66
2023/06/05 07:32:42;;;;;;;12.83;6.53;;;21.60;17.70;;;;;;5013159;28;46423;-67
2023/06/05 07:35:09;;;;;;;13.67;7.40;;;21.60;18.80;;;;;;4998082;28;46463;-70
2023/06/05 07:37:35;;;;;;;9.90;6.63;;;21.80;18.70;;;;;;5017669;28;46507;-68
2023/06/05 07:40:01;;;;;;;10.60;6.07;;;21.90;18.50;;;;;;5013859;28;47948;-66
2023/06/05 07:42:26;;;;;;;14.57;6.53;;;21.80;18.50;;;;;;5015687;28;46435;-66
2023/06/05 07:44:52;;;;;;;13.63;5.93;;;22.20;18.10;;;;;;5018350;28;46784;-66
2023/06/05 07:47:18;;;;;;;11.43;6.43;;;22.20;17.30;;;;;;5017339;28;46600;-65
2023/06/05 07:49:43;;;;;;;10.80;6.17;;;22.10;17.30;;;;;;5013857;28;46970;-67
2023/06/05 07:52:09;;;;;;;9.17;6.37;;;22.10;16.60;;;;;;5017312;28;46433;-65
2023/06/05 07:54:35;;;;;;;10.40;6.83;;;22.00;17.50;;;;;;5017229;28;46428;-64
2023/06/05 07:57:01;;;;;;;10.53;7.10;;;22.00;17.30;;;;;;5020597;28;46631;-66
2023/06/05 07:59:27;;;;;;;13.83;6.67;;;22.00;17.60;;;;;;5013666;28;46394;-67
2023/06/05 08:01:55;;;;;;;11.40;6.63;;;22.20;17.10;;;;;;5017111;28;46399;-70
2023/06/05 08:04:24;;;;;;;14.50;8.23;;;22.20;17.00;;;;;;5017448;28;45840;-67
2023/06/05 08:06:51;;;;;;;11.57;7.00;;;21.90;17.50;;;;;;5012413;28;46494;-66
2023/06/05 08:09:17;;;;;;;14.90;7.80;;;22.00;17.30;;;;;;5010631;28;47372;-66
2023/06/05 08:11:42;;;;;;;14.57;6.50;;;21.70;17.80;;;;;;5017271;28;46414;-67
2023/06/05 08:14:09;;;;;;;10.47;6.70;;;22.00;17.60;;;;;;5018843;28;46735;-66
2023/06/05 08:16:35;;;;;;;17.83;5.80;;;21.90;17.40;;;;;;5012515;28;46504;-65
2023/06/05 08:19:01;;;;;;;15.50;6.47;;;21.90;17.20;;;;;;5015768;28;46525;-67
2023/06/05 08:21:28;;;;;;;15.60;5.73;;;22.00;15.90;;;;;;5015327;28;46415;-66
2023/06/05 08:23:53;;;;;;;13.00;6.60;;;22.00;16.50;;;;;;5012014;28;46113;-66
2023/06/05 08:26:20;;;;;;;11.73;5.90;;;22.10;16.50;;;;;;5010897;28;46510;-66
2023/06/05 08:28:46;;;;;;;13.23;5.80;;;22.30;16.20;;;;;;5016219;28;47160;-66
2023/06/05 08:31:11;;;;;;;9.50;6.43;;;22.50;14.80;;;;;;5016556;28;46360;-67
2023/06/05 08:33:37;;;;;;;8.37;5.70;;;22.50;15.60;;;;;;5014719;28;46487;-68
2023/06/05 08:36:05;;;;;;;12.53;5.83;;;22.40;14.90;;;;;;5013754;28;46634;-68
2023/06/05 08:38:33;;;;;;;8.30;4.93;;;22.40;14.60;;;;;;5017651;28;46900;-67
2023/06/05 08:41:10;;;;;;;12.93;6.30;;;22.70;13.70;;;;;;5016209;28;46581;-65
2023/06/05 08:43:40;;;;;;;9.63;5.97;;;22.70;14.30;;;;;;5013322;28;46446;-63
2023/06/05 08:46:09;;;;;;;11.83;6.27;;;22.40;14.80;;;;;;5012718;28;46437;-64
2023/06/05 08:48:43;;;;;;;13.73;6.30;;;22.60;14.60;;;;;;4998565;28;48445;-65
2023/06/05 08:51:12;;;;;;;9.37;5.73;;;22.80;13.30;;;;;;5015592;28;46435;-64
2023/06/05 08:53:39;;;;;;;8.50;5.20;;;22.90;13.40;;;;;;5014202;28;46463;-66
2023/06/05 08:56:06;;;;;;;14.13;6.33;;;23.10;13.50;;;;;;5011776;28;46442;-63
2023/06/05 08:58:32;;;;;;;10.47;6.27;;;23.10;13.30;;;;;;5010716;28;46451;-65
2023/06/05 09:00:59;;;;;;;14.43;6.50;;;23.10;12.80;;;;;;5015406;28;46713;-64
2023/06/05 09:03:25;;;;;;;11.75;5.78;;;23.10;13.60;;;;;;5015918;28;46381;-66
2023/06/05 09:05:52;;;;;;;12.53;6.73;;;23.10;12.70;;;;;;5010378;28;46627;-66
2023/06/05 09:08:27;;;;;;;11.53;6.97;;;23.20;12.20;;;;;;5014297;28;46462;-65
2023/06/05 09:10:52;;;;;;;11.60;5.87;;;23.20;10.90;;;;;;5014767;28;45820;-65
2023/06/05 09:13:18;;;;;;;10.40;6.53;;;23.20;11.80;;;;;;5016550;28;46398;-63
2023/06/05 09:15:50;;;;;;;13.77;7.73;;;23.40;12.20;;;;;;5011878;28;46829;-65
2023/06/05 09:18:16;;;;;;;9.27;5.60;;;23.10;11.80;;;;;;4992683;28;47599;-64
2023/06/05 09:20:45;;;;;;;10.10;5.80;;;23.40;11.40;;;;;;5013357;28;46748;-66
2023/06/05 09:23:27;;;;;;;13.50;5.73;;;23.50;11.90;;;;;;5013119;28;46386;-66
2023/06/05 09:25:58;;;;;;;11.80;6.53;;;23.50;11.00;;;;;;5013359;28;46927;-67
2023/06/05 09:28:24;;;;;;;8.77;5.47;;;23.50;10.70;;;;;;5009167;28;46459;-65
2023/06/05 09:30:58;;;;;;;10.27;5.70;;;23.50;10.60;;;;;;5016554;28;46631;-66
2023/06/05 09:33:25;;;;;;;12.13;5.47;;;23.50;10.50;;;;;;5017694;28;46730;-66
2023/06/05 09:36:13;;;;;;;15.53;5.47;;;23.70;9.90;;;;;;5011415;28;46387;-65
2023/06/05 09:38:40;;;;;;;19.70;10.93;;;23.80;9.30;;;;;;5013354;28;46467;-70
2023/06/05 09:41:11;;;;;;;8.23;5.57;;;24.00;9.00;;;;;;5014638;28;46390;-68
2023/06/05 09:43:37;;;;;;;11.53;5.60;;;24.30;8.70;;;;;;5015598;28;46473;-68
2023/06/05 09:46:16;;;;;;;10.13;5.70;;;24.40;8.10;;;;;;5012964;28;46744;-67
2023/06/05 09:48:43;;;;;;;10.23;5.43;;;24.80;8.10;;;;;;5016151;28;47069;-67
2023/06/05 09:51:14;;;;;;;8.87;4.63;;;24.80;6.80;;;;;;5016398;28;46689;-66
2023/06/05 09:53:45;;;;;;;8.77;5.33;;;24.90;6.70;;;;;;5010579;28;46388;-68
2023/06/05 09:56:21;;;;;;;10.77;4.93;;;24.90;6.80;;;;;;5010090;28;46529;-68
2023/06/05 09:58:49;;;;;;;12.27;5.00;;;25.20;6.40;;;;;;5015632;28;46614;-66
2023/06/05 10:01:22;;;;;;;8.97;5.13;;;25.40;5.20;;;;;;4997800;28;46927;-67
2023/06/05 10:03:58;;;;;;;8.70;5.50;;;25.30;5.70;;;;;;5010042;28;47583;-65
2023/06/05 10:06:27;;;;;;;12.80;4.90;;;25.00;5.90;;;;;;5011179;28;46398;-67
2023/06/05 10:08:55;;;;;;;9.33;4.83;;;25.10;5.60;;;;;;4998815;28;46682;-66
2023/06/05 10:11:23;;;;;;;9.03;4.80;;;25.60;4.90;;;;;;5013356;28;46704;-67
2023/06/05 10:13:49;;;;;;;12.83;5.50;;;25.70;4.10;;;;;;5006378;28;46428;-67
2023/06/05 10:16:17;;;;;;;11.73;5.60;;;25.80;3.90;;;;;;5011746;28;46388;-67
2023/06/05 10:18:49;;;;;;;13.90;5.10;;;25.60;4.70;;;;;;5013094;28;46550;-68
2023/06/05 10:21:17;;;;;;;9.80;4.93;;;25.80;3.10;;;;;;5015143;28;46327;-67
2023/06/05 10:23:49;;;;;;;6.50;4.77;;;25.90;3.40;;;;;;5011639;28;46654;-68
2023/06/05 10:26:53;;;;;;;11.77;4.60;;;25.80;3.90;;;;;;5013665;28;46465;-67
2023/06/05 10:29:56;;;;;;;13.90;5.17;;;25.70;3.80;;;;;;4984792;28;47083;-65
2023/06/05 10:32:31;;;;;;;8.20;4.77;;;25.70;3.40;;;;;;5007742;28;46749;-67
2023/06/05 10:35:09;;;;;;;10.60;5.57;;;25.30;3.60;;;;;;5008974;28;46463;-68
2023/06/05 10:37:53;;;;;;;7.67;4.80;;;25.30;3.60;;;;;;5012968;28;46459;-66
2023/06/05 10:40:19;;;;;;;11.80;5.23;;;25.70;3.40;;;;;;5013508;28;46486;-66
2023/06/05 10:42:45;;;;;;;13.03;5.00;;;25.90;3.00;;;;;;5014007;28;46454;-66
2023/06/05 10:45:11;;;;;;;8.90;5.67;;;25.90;2.40;;;;;;5015293;28;46396;-65
2023/06/05 10:47:37;;;;;;;9.20;4.67;;;25.80;2.50;;;;;;5017396;28;46371;-65
2023/06/05 10:50:17;;;;;;;10.03;4.87;;;25.80;1.30;;;;;;5018674;28;46430;-66
2023/06/05 10:52:44;;;;;;;8.37;4.67;;;25.90;1.60;;;;;;5017103;28;46371;-66
2023/06/05 10:55:12;;;;;;;8.87;4.70;;;25.90;1.70;;;;;;5014394;28;46868;-64
2023/06/05 10:58:09;;;;;;;7.67;4.60;;;25.80;1.00;;;;;;5018284;28;46430;-68
2023/06/05 11:00:37;;;;;;;7.90;5.10;;;26.00;1.00;;;;;;5017568;28;46431;-68
2023/06/05 11:03:05;;;;;;;11.90;5.20;;;25.70;1.70;;;;;;5014434;28;46793;-66
2023/06/05 11:05:31;;;;;;;9.60;4.90;;;25.10;2.90;;;;;;5018134;28;46467;-66
2023/06/05 11:08:10;;;;;;;7.50;5.30;;;24.80;3.30;;;;;;5017649;28;46660;-66
2023/06/05 11:10:36;;;;;;;9.00;5.30;;;24.40;3.00;;;;;;5018167;28;46706;-67
2023/06/05 11:13:03;;;;;;;8.10;5.23;;;24.50;3.10;;;;;;5014163;28;46470;-67
2023/06/05 11:15:28;;;;;;;9.67;5.90;;;24.70;3.20;;;;;;5016610;28;46597;-66
2023/06/05 11:17:54;;;;;;;13.50;5.20;;;24.70;3.20;;;;;;5016723;28;46530;-65
2023/06/05 11:20:28;;;;;;;9.53;5.40;;;24.80;3.30;;;;;;5016698;28;46425;-66
2023/06/05 11:22:54;;;;;;;14.90;5.17;;;24.80;3.30;;;;;;5011269;28;46385;-66
2023/06/05 11:25:29;;;;;;;9.83;4.87;;;24.70;3.20;;;;;;5017652;28;46407;-66
2023/06/05 11:27:56;;;;;;;7.87;4.83;;;24.60;3.20;;;;;;5012894;28;46526;-67
2023/06/05 11:30:24;;;;;;;7.93;4.90;;;24.90;3.00;;;;;;5015914;28;46402;-65
2023/06/05 11:32:58;;;;;;;8.73;4.97;;;24.90;3.00;;;;;;5017446;28;46508;-65
2023/06/05 11:35:27;;;;;;;10.07;5.00;;;25.30;2.50;;;;;;5017987;28;46809;-68
2023/06/05 11:38:11;;;;;;;9.70;4.83;;;25.30;2.50;;;;;;5017552;28;46696;-69
2023/06/05 11:40:38;;;;;;;10.53;5.40;;;25.50;1.40;;;;;;5012875;28;46894;-71
2023/06/05 11:43:05;;;;;;;7.43;4.20;;;25.80;1.30;;;;;;5016968;28;46338;-68
2023/06/05 11:45:33;;;;;;;14.73;4.83;;;25.80;1.30;;;;;;5016979;28;46524;-69
2023/06/05 11:48:08;;;;;;;8.07;4.63;;;26.10;1.00;;;;;;5017541;28;46440;-69
2023/06/05 11:50:36;;;;;;;6.70;4.67;;;26.10;1.00;;;;;;5015526;28;46450;-66
2023/06/05 11:53:08;;;;;;;8.77;4.20;;;25.90;1.00;;;;;;5014832;28;46434;-66
2023/06/05 11:55:53;;;;;;;8.07;4.90;;;25.60;1.20;;;;;;5019077;28;46541;-66
2023/06/05 11:58:25;;;;;;;8.73;4.60;;;25.80;1.00;;;;;;5014569;28;46814;-67
2023/06/05 12:00:52;;;;;;;7.83;4.77;;;26.10;1.00;;;;;;5008604;28;46495;-70
2023/06/05 12:03:21;;;;;;;11.37;4.90;;;26.20;1.00;;;;;;5016035;28;46315;-67
2023/06/05 12:05:50;;;;;;;7.37;5.03;;;26.20;1.00;;;;;;5018648;28;46537;-68
2023/06/05 12:08:27;;;;;;;6.90;4.57;;;26.20;1.00;;;;;;5019716;28;46541;-68
2023/06/05 12:10:53;;;;;;;7.00;4.20;;;26.50;1.00;;;;;;5016127;28;46449;-68
2023/06/05 12:13:20;;;;;;;10.23;5.20;;;26.50;1.00;;;;;;5017295;28;46522;-70
2023/06/05 12:15:58;;;;;;;8.20;4.70;;;26.80;1.00;;;;;;5019241;28;46476;-69
2023/06/05 12:18:32;;;;;;;7.97;4.67;;;26.50;1.00;;;;;;5018391;28;45829;-67
2023/06/05 12:20:58;;;;;;;8.33;5.00;;;25.40;1.00;;;;;;5017306;28;46477;-66
2023/06/05 12:23:24;;;;;;;8.37;5.40;;;25.40;1.00;;;;;;5019379;28;46556;-68
2023/06/05 12:26:03;;;;;;;14.80;6.00;;;25.20;1.00;;;;;;5019967;28;46496;-69
2023/06/05 12:28:30;;;;;;;7.00;4.70;;;25.20;1.00;;;;;;5017855;28;46537;-70
2023/06/05 12:30:58;;;;;;;8.97;6.23;;;25.50;1.00;;;;;;5013939;28;46360;-72
2023/06/05 12:33:24;;;;;;;7.70;4.33;;;25.50;1.00;;;;;;5015399;28;46483;-69
2023/06/05 12:36:06;;;;;;;7.60;4.70;;;26.00;1.00;;;;;;5017498;28;46720;-70
2023/06/05 12:38:40;;;;;;;10.43;5.63;;;25.90;1.00;;;;;;5011415;28;46470;-70
2023/06/05 12:41:06;;;;;;;12.03;4.63;;;25.60;1.00;;;;;;5012910;28;47512;-68
2023/06/05 12:43:33;;;;;;;7.57;5.03;;;25.30;1.00;;;;;;5017495;28;46570;-70
2023/06/05 12:45:59;;;;;;;8.93;5.13;;;24.90;1.10;;;;;;5019218;28;46470;-69
2023/06/05 12:48:24;;;;;;;9.40;4.97;;;24.70;1.10;;;;;;5017758;28;46402;-74